Time;durP1;ratioP1;P1;durP2;ratioP2;P2;SDS_P1;SDS_P2;PMS_P1;PMS_P2;Temp;Humidity;BMP_temperature;BMP_pressure;BME280_temperature;BME280_humidity;BME280_pressure;Samples;Min_cycle;Max_cycle;Signal;HPM_P1;HPM_P2
2024/02/12 00:02:18;;;;;;;0.05;0.05;;;6.20;99.90;;;;;;5100378;28;20031;-78
2024/02/12 00:04:48;;;;;;;0.10;0.10;;;6.40;99.90;;;;;;5102184;28;20035;-79
2024/02/12 00:07:17;;;;;;;1.85;1.75;;;6.40;99.90;;;;;;5100608;28;20065;-79
2024/02/12 00:09:44;;;;;;;0.10;0.10;;;6.20;99.90;;;;;;5102669;28;20032;-79
2024/02/12 00:12:11;;;;;;;0.10;0.10;;;6.40;99.90;;;;;;5102414;28;20039;-79
2024/02/12 00:14:39;;;;;;;;;;;6.40;99.90;;;;;;5104314;28;20055;-79
2024/02/12 00:17:05;;;;;;;0.10;0.10;;;6.40;99.90;;;;;;5100169;28;19962;-79
2024/02/12 00:19:34;;;;;;;0.10;0.10;;;6.40;99.90;;;;;;5095541;28;20036;-78
2024/02/12 00:22:00;;;;;;;0.10;0.10;;;6.30;99.90;;;;;;5099590;28;20067;-78
2024/02/12 00:24:28;;;;;;;0.10;0.10;;;6.10;99.90;;;;;;5100191;28;20027;-78
2024/02/12 00:26:59;;;;;;;0.10;0.10;;;6.20;99.90;;;;;;5102497;28;20524;-78
2024/02/12 00:29:26;;;;;;;0.47;0.47;;;6.10;99.90;;;;;;5099534;28;20117;-79
2024/02/12 00:31:53;;;;;;;0.98;0.95;;;6.20;99.90;;;;;;5099757;28;20096;-78
2024/02/12 00:34:20;;;;;;;0.10;0.10;;;6.20;99.90;;;;;;5101046;28;20079;-78
2024/02/12 00:36:49;;;;;;;0.10;0.10;;;6.10;99.90;;;;;;5102751;28;20036;-78
2024/02/12 00:39:14;;;;;;;0.10;0.10;;;6.00;99.90;;;;;;5101283;28;20063;-78
2024/02/12 00:41:40;;;;;;;0.45;0.45;;;6.20;99.90;;;;;;5101994;28;20066;-79
2024/02/12 00:44:06;;;;;;;0.10;0.10;;;6.10;99.90;;;;;;5100084;28;20510;-78
2024/02/12 00:46:32;;;;;;;0.07;0.07;;;6.00;99.90;;;;;;5103657;28;20028;-78
2024/02/12 00:48:57;;;;;;;0.10;0.10;;;6.00;99.90;;;;;;5103317;28;20028;-79
2024/02/12 00:51:23;;;;;;;0.10;0.10;;;6.00;99.90;;;;;;5101514;28;20441;-79
2024/02/12 00:53:49;;;;;;;0.07;0.07;;;6.10;99.90;;;;;;5098254;28;20032;-79
2024/02/12 00:56:15;;;;;;;0.10;0.10;;;6.00;99.90;;;;;;5097019;28;20055;-78
2024/02/12 00:58:42;;;;;;;0.10;0.10;;;6.00;99.90;;;;;;5087972;28;20038;-79
2024/02/12 01:01:10;;;;;;;0.10;0.10;;;6.10;99.90;;;;;;5087708;28;20679;-78
2024/02/12 01:03:36;;;;;;;0.10;0.10;;;6.00;99.90;;;;;;5087795;28;20028;-78
2024/02/12 01:06:02;;;;;;;0.10;0.10;;;6.00;99.90;;;;;;5089104;28;20089;-78
2024/02/12 01:08:28;;;;;;;0.10;0.10;;;6.00;99.90;;;;;;5088955;28;20028;-79
2024/02/12 01:10:53;;;;;;;0.10;0.10;;;5.90;99.90;;;;;;5083935;28;20028;-79
2024/02/12 01:13:19;;;;;;;0.10;0.10;;;6.00;99.90;;;;;;5090697;28;20071;-78
2024/02/12 01:15:49;;;;;;;0.10;0.10;;;5.90;99.90;;;;;;5082256;28;20060;-79
2024/02/12 01:18:15;;;;;;;0.10;0.10;;;5.80;99.90;;;;;;5089327;28;20066;-80
2024/02/12 01:20:41;;;;;;;0.08;0.08;;;5.90;99.90;;;;;;5089342;28;20024;-80
2024/02/12 01:23:07;;;;;;;0.08;0.08;;;5.80;99.90;;;;;;5089398;28;20050;-79
2024/02/12 01:25:33;;;;;;;0.10;0.10;;;5.80;99.90;;;;;;5087624;28;20131;-80
2024/02/12 01:28:02;;;;;;;0.10;0.10;;;5.80;99.90;;;;;;5088927;28;20131;-80
2024/02/12 01:30:31;;;;;;;0.10;0.10;;;5.80;99.90;;;;;;5088955;28;20020;-80
2024/02/12 01:32:56;;;;;;;0.10;0.10;;;5.90;99.90;;;;;;5086639;28;20391;-80
2024/02/12 01:35:22;;;;;;;0.10;0.10;;;5.90;99.90;;;;;;5083987;28;20078;-80
2024/02/12 01:37:47;;;;;;;0.10;0.10;;;5.70;99.90;;;;;;5088247;28;20042;-80
2024/02/12 01:40:13;;;;;;;0.40;0.40;;;5.70;99.90;;;;;;5081318;28;20066;-80
2024/02/12 01:42:39;;;;;;;0.10;0.10;;;5.50;99.90;;;;;;5088077;28;20063;-80
2024/02/12 01:45:13;;;;;;;0.10;0.10;;;5.40;99.90;;;;;;5083884;28;20063;-79
2024/02/12 01:47:47;;;;;;;0.20;0.20;;;5.30;99.90;;;;;;5087045;28;20020;-80
2024/02/12 01:50:15;;;;;;;0.10;0.10;;;5.20;99.90;;;;;;5085453;28;20061;-80
2024/02/12 01:52:46;;;;;;;0.10;0.10;;;5.10;99.90;;;;;;5086537;28;20031;-79
2024/02/12 01:55:12;;;;;;;0.10;0.10;;;5.10;99.90;;;;;;5084861;28;20403;-80
2024/02/12 01:57:38;;;;;;;0.10;0.10;;;5.00;99.90;;;;;;5087915;28;20043;-80
2024/02/12 02:00:05;;;;;;;0.25;0.25;;;5.10;99.90;;;;;;5089217;28;20057;-80
2024/02/12 02:02:30;;;;;;;0.10;0.10;;;5.00;99.90;;;;;;5083982;28;20040;-80
2024/02/12 02:04:58;;;;;;;0.10;0.10;;;4.80;99.90;;;;;;5088387;28;20407;-80
2024/02/12 02:07:24;;;;;;;0.10;0.10;;;4.90;99.90;;;;;;5088638;28;20024;-78
2024/02/12 02:09:53;;;;;;;0.10;0.10;;;4.90;99.90;;;;;;5086620;28;20421;-79
2024/02/12 02:12:19;;;;;;;0.10;0.10;;;4.90;99.90;;;;;;5080885;28;20032;-78
2024/02/12 02:14:45;;;;;;;0.10;0.10;;;5.00;99.90;;;;;;5084699;28;20030;-78
2024/02/12 02:17:13;;;;;;;0.10;0.10;;;5.00;99.90;;;;;;5088318;28;20047;-77
2024/02/12 02:19:39;;;;;;;0.10;0.10;;;5.00;99.90;;;;;;5086080;28;20027;-78
2024/02/12 02:22:06;;;;;;;0.10;0.10;;;5.10;99.90;;;;;;5087916;28;20024;-78
2024/02/12 02:24:32;;;;;;;0.15;0.15;;;5.10;99.90;;;;;;5081047;28;20106;-78
2024/02/12 02:26:58;;;;;;;0.10;0.10;;;5.10;99.90;;;;;;5088443;28;20107;-78
2024/02/12 02:29:23;;;;;;;0.10;0.10;;;5.10;99.90;;;;;;5088327;28;20031;-78
2024/02/12 02:31:49;;;;;;;0.10;0.10;;;5.20;99.90;;;;;;5079763;28;21335;-78
2024/02/12 02:34:15;;;;;;;0.28;0.28;;;5.20;99.90;;;;;;5087743;28;20021;-78
2024/02/12 02:36:47;;;;;;;0.10;0.10;;;5.20;99.90;;;;;;5082304;28;20114;-79
2024/02/12 02:39:16;;;;;;;0.10;0.10;;;5.10;99.90;;;;;;5083431;28;20024;-79
2024/02/12 02:41:43;;;;;;;0.10;0.10;;;5.10;99.90;;;;;;5087061;28;20050;-78
2024/02/12 02:44:08;;;;;;;0.10;0.10;;;5.10;99.90;;;;;;5088289;28;20093;-78
2024/02/12 02:46:36;;;;;;;0.10;0.10;;;5.20;99.90;;;;;;5087654;28;20039;-78
2024/02/12 02:49:02;;;;;;;0.10;0.10;;;5.10;99.90;;;;;;5086670;28;20020;-78
2024/02/12 02:51:29;;;;;;;0.10;0.10;;;5.10;99.90;;;;;;5087703;28;20031;-79
2024/02/12 02:53:55;;;;;;;;;;;5.00;99.90;;;;;;5086467;28;20031;-78
2024/02/12 02:56:22;;;;;;;0.10;0.10;;;5.10;99.90;;;;;;5087254;28;19920;-78
2024/02/12 02:58:49;;;;;;;0.10;0.10;;;5.00;99.90;;;;;;5085612;28;21203;-78
2024/02/12 03:01:14;;;;;;;0.10;0.10;;;5.00;99.90;;;;;;5086844;28;20031;-78
2024/02/12 03:03:40;;;;;;;0.10;0.10;;;5.00;99.90;;;;;;5087065;28;20036;-79
2024/02/12 03:06:06;;;;;;;0.10;0.10;;;5.00;99.90;;;;;;5087341;28;20415;-78
2024/02/12 03:08:34;;;;;;;0.00;0.00;;;5.10;99.90;;;;;;5087104;28;20291;-78
2024/02/12 03:11:04;;;;;;;0.63;0.63;;;5.00;99.90;;;;;;5075750;28;20860;-77
2024/02/12 03:13:30;;;;;;;0.10;0.10;;;5.10;99.90;;;;;;5085949;28;20073;-77
2024/02/12 03:15:56;;;;;;;0.10;0.10;;;5.00;99.90;;;;;;5087788;28;20089;-78
2024/02/12 03:18:22;;;;;;;0.10;0.10;;;5.00;99.90;;;;;;5086912;28;20039;-78
2024/02/12 03:20:52;;;;;;;0.10;0.10;;;5.00;99.90;;;;;;5084206;28;20109;-78
2024/02/12 03:23:18;;;;;;;0.10;0.10;;;5.00;99.90;;;;;;5087185;28;20024;-77
2024/02/12 03:25:43;;;;;;;0.22;0.22;;;5.00;99.90;;;;;;5085197;28;20399;-78
2024/02/12 03:28:09;;;;;;;0.10;0.10;;;5.00;99.90;;;;;;5085436;28;20773;-79
2024/02/12 03:30:35;;;;;;;0.10;0.10;;;5.00;99.90;;;;;;5084151;28;20120;-78
2024/02/12 03:33:02;;;;;;;0.10;0.10;;;5.00;99.90;;;;;;5083660;28;20556;-78
2024/02/12 03:35:28;;;;;;;0.10;0.10;;;5.00;99.90;;;;;;5087275;28;20528;-78
2024/02/12 03:37:54;;;;;;;0.10;0.10;;;5.00;99.90;;;;;;5082523;28;20384;-79
2024/02/12 03:40:22;;;;;;;0.55;0.55;;;5.10;99.90;;;;;;5081643;28;20113;-79
2024/02/12 03:42:51;;;;;;;0.10;0.10;;;5.00;99.90;;;;;;5086739;28;20055;-78
2024/02/12 03:45:17;;;;;;;0.10;0.10;;;5.10;99.90;;;;;;5087863;28;20028;-78
2024/02/12 03:47:44;;;;;;;0.20;0.20;;;5.00;99.90;;;;;;5082070;28;20039;-78
2024/02/12 04:01:18;;;;;;;0.10;0.10;;;4.90;99.90;;;;;;5086917;28;20035;-78
2024/02/12 04:03:46;;;;;;;0.10;0.10;;;4.80;99.90;;;;;;5085568;28;21587;-78
2024/02/12 04:06:12;;;;;;;0.10;0.10;;;4.50;99.90;;;;;;5083919;28;20047;-78
2024/02/12 04:08:45;;;;;;;0.10;0.10;;;4.40;99.90;;;;;;5087374;28;20442;-78
2024/02/12 04:11:12;;;;;;;0.10;0.10;;;4.30;99.90;;;;;;5079763;28;20021;-78
2024/02/12 04:13:38;;;;;;;0.10;0.10;;;4.20;99.90;;;;;;5087397;28;20517;-78
2024/02/12 04:16:09;;;;;;;0.10;0.10;;;4.10;99.90;;;;;;5078703;28;20029;-78
2024/02/12 04:18:34;;;;;;;0.10;0.10;;;4.00;99.90;;;;;;5082947;28;20036;-78
2024/02/12 04:21:08;;;;;;;0.17;0.17;;;4.00;99.90;;;;;;5087268;28;20818;-79
2024/02/12 04:23:37;;;;;;;0.10;0.10;;;4.10;99.90;;;;;;5078965;28;20067;-78
2024/02/12 04:26:06;;;;;;;0.10;0.10;;;4.20;99.90;;;;;;5085428;28;20028;-78
2024/02/12 04:28:32;;;;;;;0.10;0.10;;;4.30;99.90;;;;;;5086918;28;20707;-78
2024/02/12 04:30:58;;;;;;;0.10;0.10;;;4.20;99.90;;;;;;5086657;28;20458;-78
2024/02/12 04:33:23;;;;;;;0.10;0.10;;;4.20;99.90;;;;;;5089896;28;20034;-77
2024/02/12 04:35:49;;;;;;;0.10;0.10;;;4.20;99.90;;;;;;5079772;28;20411;-77
2024/02/12 04:38:15;;;;;;;0.10;0.10;;;4.40;99.90;;;;;;5083279;28;20608;-77
2024/02/12 04:40:40;;;;;;;0.10;0.10;;;4.60;99.90;;;;;;5090678;28;20067;-78
2024/02/12 04:43:07;;;;;;;0.35;0.35;;;4.60;99.90;;;;;;5084392;28;20032;-78
2024/02/12 04:45:33;;;;;;;;;;;4.50;99.90;;;;;;5081170;28;20059;-78
2024/02/12 04:47:59;;;;;;;0.10;0.10;;;4.40;99.90;;;;;;5083942;28;20045;-78
2024/02/12 04:50:25;;;;;;;0.10;0.10;;;4.40;99.90;;;;;;5089198;28;20062;-79
2024/02/12 04:52:51;;;;;;;0.10;0.10;;;4.30;99.90;;;;;;5084495;28;20028;-79
2024/02/12 04:55:17;;;;;;;0.10;0.10;;;4.10;99.90;;;;;;5088924;28;20046;-78
2024/02/12 04:57:43;;;;;;;0.10;0.10;;;4.20;99.90;;;;;;5089009;28;20063;-78
2024/02/12 05:00:10;;;;;;;0.10;0.10;;;4.30;99.90;;;;;;5086446;28;20498;-77
2024/02/12 05:02:40;;;;;;;0.10;0.10;;;4.40;99.90;;;;;;5088933;28;20077;-82
2024/02/12 05:05:06;;;;;;;1.52;1.42;;;4.50;99.90;;;;;;5088799;28;20036;-80
2024/02/12 05:07:32;;;;;;;0.57;0.57;;;4.60;99.90;;;;;;5087885;28;20048;-77
2024/02/12 05:09:59;;;;;;;0.10;0.10;;;4.70;99.90;;;;;;5088939;28;20031;-79
2024/02/12 05:12:25;;;;;;;0.03;0.03;;;4.80;99.90;;;;;;5089536;28;20019;-78
2024/02/12 05:14:51;;;;;;;0.10;0.10;;;4.90;99.90;;;;;;5086362;28;20024;-79
2024/02/12 05:17:23;;;;;;;0.10;0.10;;;5.00;99.90;;;;;;5084881;28;20050;-78
2024/02/12 05:22:34;;;;;;;0.10;0.10;;;5.00;99.90;;;;;;5081897;28;20046;-79
2024/02/12 05:25:05;;;;;;;0.10;0.10;;;4.90;99.90;;;;;;5081314;28;20070;-80
2024/02/12 05:27:32;;;;;;;0.10;0.10;;;4.80;99.90;;;;;;5084783;28;20048;-80
2024/02/12 05:29:57;;;;;;;0.10;0.10;;;4.90;99.90;;;;;;5088572;28;20020;-80
2024/02/12 05:32:23;;;;;;;0.10;0.10;;;5.00;99.90;;;;;;5086633;28;21125;-79
2024/02/12 05:34:49;;;;;;;0.10;0.10;;;5.00;99.90;;;;;;5089134;28;20510;-78
2024/02/12 05:37:15;;;;;;;0.10;0.10;;;5.00;99.90;;;;;;5089814;28;20024;-78
2024/02/12 05:39:45;;;;;;;0.10;0.10;;;4.90;99.90;;;;;;5089121;28;20713;-79
2024/02/12 05:42:10;;;;;;;0.10;0.10;;;5.00;99.90;;;;;;5082924;28;20017;-78
2024/02/12 05:44:36;;;;;;;0.10;0.10;;;5.10;99.90;;;;;;5092443;28;20077;-79
2024/02/12 05:47:03;;;;;;;0.10;0.10;;;5.20;99.90;;;;;;5089143;28;21064;-78
2024/02/12 05:49:33;;;;;;;0.10;0.10;;;5.20;99.90;;;;;;5088870;28;20020;-78
2024/02/12 05:51:59;;;;;;;0.10;0.10;;;5.20;99.90;;;;;;5089564;28;20032;-78
2024/02/12 05:54:25;;;;;;;0.10;0.10;;;5.20;99.90;;;;;;5089333;28;20013;-78
2024/02/12 05:56:52;;;;;;;0.10;0.10;;;5.20;99.90;;;;;;5087965;28;20048;-78
2024/02/12 05:59:18;;;;;;;0.10;0.10;;;5.30;99.90;;;;;;5088675;28;20044;-78
2024/02/12 06:01:43;;;;;;;0.90;0.60;;;5.30;99.90;;;;;;5089490;28;20031;-78
2024/02/12 06:04:09;;;;;;;0.05;0.05;;;5.20;99.90;;;;;;5089372;28;20419;-77
2024/02/12 06:06:38;;;;;;;0.10;0.10;;;5.10;99.90;;;;;;5089567;28;20059;-77
2024/02/12 06:09:04;;;;;;;0.10;0.10;;;5.20;99.90;;;;;;5089236;28;20024;-79
2024/02/12 06:11:30;;;;;;;0.10;0.10;;;5.10;99.90;;;;;;5087530;28;20016;-78
2024/02/12 06:13:55;;;;;;;0.10;0.10;;;5.10;99.90;;;;;;5087519;28;20171;-79
2024/02/12 06:16:21;;;;;;;0.10;0.10;;;5.10;99.90;;;;;;5091857;28;20020;-79
2024/02/12 06:18:47;;;;;;;0.10;0.10;;;5.00;99.90;;;;;;5088965;28;20032;-78
2024/02/12 06:21:13;;;;;;;0.10;0.10;;;5.10;99.90;;;;;;5088294;28;20027;-78
2024/02/12 06:23:39;;;;;;;0.10;0.10;;;5.00;99.90;;;;;;5083312;28;20073;-79
2024/02/12 06:26:05;;;;;;;0.10;0.10;;;5.00;99.90;;;;;;5086818;28;20108;-79
2024/02/12 06:28:31;;;;;;;0.10;0.10;;;4.90;99.90;;;;;;5087266;28;20035;-79
2024/02/12 06:30:57;;;;;;;0.10;0.10;;;4.90;99.90;;;;;;5088202;28;20028;-79
2024/02/12 06:33:23;;;;;;;0.10;0.10;;;4.90;99.90;;;;;;5087449;28;20032;-78
2024/02/12 06:35:48;;;;;;;0.10;0.10;;;5.00;99.90;;;;;;5088275;28;20054;-78
2024/02/12 06:38:14;;;;;;;0.10;0.10;;;5.10;99.90;;;;;;5086548;28;20028;-78
2024/02/12 06:40:40;;;;;;;0.10;0.10;;;5.20;99.90;;;;;;5088099;28;20042;-78
2024/02/12 06:43:06;;;;;;;0.10;0.10;;;5.30;99.90;;;;;;5084160;28;20064;-78
2024/02/12 06:45:32;;;;;;;0.10;0.10;;;5.30;99.90;;;;;;5087690;28;20566;-79
2024/02/12 06:47:58;;;;;;;0.10;0.10;;;5.30;99.90;;;;;;5086293;28;20055;-79
2024/02/12 06:50:24;;;;;;;0.10;0.10;;;5.40;99.90;;;;;;5087144;28;20476;-79
2024/02/12 06:52:50;;;;;;;0.10;0.10;;;5.40;99.90;;;;;;5087226;28;20016;-79
2024/02/12 06:55:15;;;;;;;0.03;0.03;;;5.40;99.90;;;;;;5087357;28;20063;-79
2024/02/12 06:57:45;;;;;;;0.10;0.10;;;5.40;99.90;;;;;;5088539;28;20036;-81
2024/02/12 07:00:15;;;;;;;0.10;0.10;;;5.30;99.90;;;;;;5087048;28;20047;-79
2024/02/12 07:02:42;;;;;;;0.10;0.10;;;5.30;99.90;;;;;;5086811;28;20027;-80
2024/02/12 07:05:09;;;;;;;0.10;0.10;;;5.30;99.90;;;;;;5086878;28;20036;-79
2024/02/12 07:07:35;;;;;;;0.30;0.30;;;5.20;99.90;;;;;;5087990;28;20028;-81
2024/02/12 07:10:00;;;;;;;0.10;0.10;;;5.10;99.90;;;;;;5091494;28;20103;-80
2024/02/12 07:12:26;;;;;;;0.10;0.10;;;5.00;99.90;;;;;;5091116;28;20055;-86
2024/02/12 07:14:52;;;;;;;0.10;0.10;;;5.00;99.90;;;;;;5089142;28;20035;-82
2024/02/12 07:17:21;;;;;;;0.10;0.10;;;4.90;99.90;;;;;;5086709;28;20411;-81
2024/02/12 07:19:50;;;;;;;0.08;0.08;;;4.90;99.90;;;;;;5087262;28;20032;-81
2024/02/12 07:22:20;;;;;;;0.10;0.10;;;4.80;99.90;;;;;;5083570;28;20023;-81
2024/02/12 07:24:49;;;;;;;0.10;0.10;;;4.70;99.90;;;;;;5081543;28;20119;-79
2024/02/12 07:27:17;;;;;;;0.10;0.10;;;4.80;99.90;;;;;;5086813;28;20024;-79
2024/02/12 07:29:42;;;;;;;0.10;0.10;;;4.90;99.90;;;;;;5087105;28;20035;-80
2024/02/12 07:32:11;;;;;;;0.10;0.10;;;4.80;99.90;;;;;;5086677;28;20020;-80
2024/02/12 07:34:37;;;;;;;0.10;0.10;;;4.80;99.90;;;;;;5089498;28;20073;-79
2024/02/12 07:37:03;;;;;;;0.10;0.10;;;4.90;99.90;;;;;;5088431;28;20031;-79
2024/02/12 07:39:29;;;;;;;0.10;0.10;;;4.90;99.90;;;;;;5089512;28;20044;-79
2024/02/12 07:41:59;;;;;;;0.10;0.10;;;4.90;99.90;;;;;;5088071;28;20022;-80
2024/02/12 07:44:27;;;;;;;0.10;0.10;;;4.80;99.90;;;;;;5088224;28;20028;-79
2024/02/12 07:46:53;;;;;;;0.10;0.10;;;4.80;99.90;;;;;;5087836;28;20093;-79
2024/02/12 07:49:19;;;;;;;0.10;0.10;;;4.90;99.90;;;;;;5088269;28;20025;-79
2024/02/12 07:51:47;;;;;;;0.10;0.10;;;4.90;99.90;;;;;;5087484;28;20021;-79
2024/02/12 07:54:13;;;;;;;0.10;0.10;;;4.90;99.90;;;;;;5086930;28;20021;-79
2024/02/12 07:56:41;;;;;;;0.10;0.10;;;4.90;99.90;;;;;;5087796;28;20548;-79
2024/02/12 07:59:07;;;;;;;0.10;0.10;;;5.00;99.90;;;;;;5087390;28;20028;-79
2024/02/12 08:01:33;;;;;;;0.22;0.22;;;5.00;99.90;;;;;;5087323;28;20032;-79
2024/02/12 08:03:58;;;;;;;0.10;0.10;;;5.00;99.90;;;;;;5087567;28;20056;-79
2024/02/12 08:06:24;;;;;;;0.10;0.10;;;5.10;99.90;;;;;;5087870;28;20410;-79
2024/02/12 08:08:50;;;;;;;0.10;0.10;;;5.20;99.90;;;;;;5090564;28;20097;-79
2024/02/12 08:11:17;;;;;;;0.10;0.10;;;5.30;99.90;;;;;;5089967;28;20028;-79
2024/02/12 08:13:43;;;;;;;;;;;5.40;99.90;;;;;;5092225;28;20020;-79
2024/02/12 08:16:09;;;;;;;0.10;0.10;;;5.50;99.90;;;;;;5090115;28;19908;-79
2024/02/12 08:18:36;;;;;;;0.10;0.10;;;5.70;99.90;;;;;;5095910;28;20081;-79
2024/02/12 08:21:02;;;;;;;0.10;0.10;;;5.70;99.90;;;;;;5089995;28;20042;-79
2024/02/12 08:23:27;;;;;;;0.10;0.10;;;5.70;99.90;;;;;;5085846;28;20060;-78
2024/02/12 08:25:53;;;;;;;0.10;0.10;;;5.70;99.90;;;;;;5090672;28;20099;-79
2024/02/12 08:28:23;;;;;;;0.10;0.10;;;5.70;99.90;;;;;;5091828;28;20086;-79
2024/02/12 08:30:48;;;;;;;0.10;0.10;;;5.50;99.90;;;;;;5090111;28;20024;-79
2024/02/12 08:33:14;;;;;;;0.10;0.10;;;5.60;99.90;;;;;;5090877;28;20119;-78
2024/02/12 08:35:40;;;;;;;0.10;0.10;;;5.60;99.90;;;;;;5091857;28;20057;-78
2024/02/12 08:38:08;;;;;;;0.10;0.10;;;5.50;99.90;;;;;;5089526;28;20423;-78
2024/02/12 08:40:34;;;;;;;0.10;0.10;;;5.60;99.90;;;;;;5090248;28;20593;-78
2024/02/12 08:43:00;;;;;;;0.10;0.10;;;5.60;99.90;;;;;;5090676;28;20039;-78
2024/02/12 08:45:25;;;;;;;0.10;0.10;;;5.60;99.90;;;;;;5089333;28;20051;-79
2024/02/12 08:47:51;;;;;;;0.10;0.10;;;5.70;99.90;;;;;;5090732;28;20414;-79
2024/02/12 08:50:17;;;;;;;0.10;0.10;;;5.90;99.90;;;;;;5091062;28;20099;-78
2024/02/12 08:52:43;;;;;;;0.10;0.10;;;6.00;99.90;;;;;;5090951;28;20108;-79
2024/02/12 08:55:11;;;;;;;0.10;0.10;;;6.10;99.90;;;;;;5090552;28;20049;-79
2024/02/12 08:57:38;;;;;;;0.10;0.10;;;6.30;99.90;;;;;;5089355;28;20060;-79
2024/02/12 09:00:05;;;;;;;0.10;0.10;;;6.50;99.90;;;;;;5089574;28;20028;-79
2024/02/12 09:02:31;;;;;;;0.10;0.10;;;6.50;99.90;;;;;;5092139;28;20089;-79
2024/02/12 09:04:57;;;;;;;0.10;0.10;;;6.40;99.90;;;;;;5089887;28;20032;-79
2024/02/12 09:07:22;;;;;;;0.00;0.00;;;6.20;99.90;;;;;;5090846;28;20024;-79
2024/02/12 09:09:48;;;;;;;0.10;0.10;;;6.10;99.90;;;;;;5091230;28;20048;-79
2024/02/12 09:12:14;;;;;;;0.10;0.10;;;6.10;99.90;;;;;;5091082;28;20032;-79
2024/02/12 09:14:40;;;;;;;0.10;0.10;;;6.10;99.90;;;;;;5091555;28;20497;-79
2024/02/12 09:17:05;;;;;;;0.08;0.08;;;6.00;99.90;;;;;;5089394;28;20024;-79
2024/02/12 09:19:32;;;;;;;0.10;0.10;;;6.20;99.90;;;;;;5090670;28;20024;-79
2024/02/12 09:21:58;;;;;;;0.13;0.13;;;6.20;99.90;;;;;;5086815;28;20032;-78
2024/02/12 09:24:23;;;;;;;0.10;0.10;;;6.20;99.90;;;;;;5089453;28;20040;-79
2024/02/12 09:26:49;;;;;;;0.10;0.10;;;6.20;99.90;;;;;;5090091;28;20039;-79
2024/02/12 09:29:16;;;;;;;0.10;0.10;;;6.00;99.90;;;;;;5090326;28;20487;-79
2024/02/12 09:31:42;;;;;;;0.08;0.08;;;6.00;99.90;;;;;;5088030;28;20615;-79
2024/02/12 09:34:07;;;;;;;0.10;0.10;;;6.00;99.90;;;;;;5089357;28;20059;-79
2024/02/12 09:36:33;;;;;;;0.10;0.10;;;6.10;99.90;;;;;;5090827;28;20467;-79
2024/02/12 09:38:59;;;;;;;0.10;0.10;;;6.10;99.90;;;;;;5088817;28;20078;-80
2024/02/12 09:41:28;;;;;;;0.10;0.10;;;6.20;99.90;;;;;;5090389;28;20024;-80
2024/02/12 09:43:55;;;;;;;0.10;0.10;;;6.20;99.90;;;;;;5089954;28;20035;-79
2024/02/12 09:46:21;;;;;;;0.08;0.08;;;6.10;99.90;;;;;;5087661;28;20146;-80
2024/02/12 09:48:48;;;;;;;0.10;0.10;;;6.00;99.90;;;;;;5090598;28;20415;-79
2024/02/12 09:51:16;;;;;;;0.00;0.00;;;5.90;99.90;;;;;;5089537;28;20031;-79
2024/02/12 09:53:43;;;;;;;0.10;0.10;;;5.90;99.90;;;;;;5089767;28;20089;-80
2024/02/12 09:56:13;;;;;;;0.10;0.10;;;5.90;99.90;;;;;;5088881;28;20515;-80
2024/02/12 09:58:38;;;;;;;0.10;0.10;;;5.90;99.90;;;;;;5089188;28;20028;-81
2024/02/12 10:01:10;;;;;;;0.10;0.10;;;6.10;99.90;;;;;;5088985;28;20036;-80
2024/02/12 10:03:36;;;;;;;0.00;0.00;;;6.20;99.90;;;;;;5089378;28;20103;-80
2024/02/12 10:06:02;;;;;;;0.08;0.08;;;6.40;99.90;;;;;;5088979;28;20119;-80
2024/02/12 10:08:28;;;;;;;1.45;0.98;;;6.40;99.90;;;;;;5089286;28;20532;-80
2024/02/12 10:10:54;;;;;;;0.00;0.00;;;6.50;99.90;;;;;;5088298;28;20078;-79
2024/02/12 10:13:20;;;;;;;0.05;0.05;;;6.50;99.90;;;;;;5089581;28;20039;-79
2024/02/12 10:15:47;;;;;;;0.10;0.10;;;6.60;99.90;;;;;;5089443;28;20097;-79
2024/02/12 10:18:15;;;;;;;0.10;0.10;;;6.70;99.90;;;;;;5089977;28;20277;-79
2024/02/12 10:20:42;;;;;;;0.10;0.10;;;6.80;99.90;;;;;;5089589;28;20084;-80
2024/02/12 10:23:09;;;;;;;0.10;0.10;;;6.80;99.90;;;;;;5082991;28;20028;-79
2024/02/12 10:25:43;;;;;;;0.10;0.10;;;6.80;99.90;;;;;;5088971;28;20028;-80
2024/02/12 10:28:18;;;;;;;0.10;0.10;;;6.90;99.90;;;;;;5089026;28;20028;-80
2024/02/12 10:30:46;;;;;;;0.10;0.10;;;6.90;99.90;;;;;;5086366;28;20024;-80
2024/02/12 10:33:13;;;;;;;0.10;0.10;;;7.00;99.90;;;;;;5088721;28;20032;-79
2024/02/12 10:35:46;;;;;;;0.10;0.10;;;7.00;99.90;;;;;;5088961;28;20035;-79
2024/02/12 10:38:15;;;;;;;0.00;0.00;;;7.00;99.90;;;;;;5088894;28;20032;-80
2024/02/12 10:41:09;;;;;;;0.10;0.10;;;7.10;99.90;;;;;;5089475;28;20036;-80
2024/02/12 10:43:40;;;;;;;0.10;0.10;;;7.30;99.90;;;;;;5089804;28;20034;-79
2024/02/12 10:46:06;;;;;;;0.05;0.05;;;7.50;99.90;;;;;;5088564;28;20028;-80
2024/02/12 10:48:34;;;;;;;0.00;0.00;;;7.40;99.90;;;;;;5088715;28;20019;-80
2024/02/12 10:51:01;;;;;;;0.10;0.10;;;7.30;99.90;;;;;;5088079;28;20726;-80
2024/02/12 10:53:31;;;;;;;0.10;0.10;;;7.10;99.90;;;;;;5089512;28;20043;-80
2024/02/12 10:55:58;;;;;;;0.03;0.03;;;7.10;99.90;;;;;;5088564;28;20503;-80
2024/02/12 10:58:24;;;;;;;0.05;0.05;;;7.10;99.90;;;;;;5089434;28;20510;-80
2024/02/12 11:00:55;;;;;;;0.10;0.10;;;6.70;99.90;;;;;;5086944;28;20112;-81
2024/02/12 11:03:43;;;;;;;0.10;0.10;;;6.50;99.90;;;;;;5088806;28;20111;-81
2024/02/12 11:06:14;;;;;;;0.10;0.10;;;6.40;99.90;;;;;;5086675;28;20019;-81
2024/02/12 11:08:41;;;;;;;0.10;0.10;;;6.30;99.90;;;;;;5086780;28;20032;-81
2024/02/12 11:11:28;;;;;;;0.10;0.10;;;6.40;99.90;;;;;;5086642;28;20024;-81
2024/02/12 11:14:05;;;;;;;0.10;0.10;;;6.50;99.90;;;;;;5086413;28;20047;-81
2024/02/12 11:16:32;;;;;;;0.10;0.10;;;6.50;99.90;;;;;;5087979;28;20570;-80
2024/02/12 11:18:59;;;;;;;;;;;6.60;99.90;;;;;;5088570;28;20036;-81
2024/02/12 11:21:28;;;;;;;0.10;0.10;;;6.70;99.90;;;;;;5089913;28;19908;-81
2024/02/12 11:24:14;;;;;;;0.10;0.10;;;6.90;99.90;;;;;;5086162;28;20724;-81
2024/02/12 11:26:43;;;;;;;0.10;0.10;;;6.90;99.90;;;;;;5089078;28;20040;-81
2024/02/12 11:29:10;;;;;;;0.10;0.10;;;6.80;99.90;;;;;;5086900;28;20032;-81
2024/02/12 11:31:38;;;;;;;0.10;0.10;;;6.70;99.90;;;;;;5090156;28;20028;-81
2024/02/12 11:34:14;;;;;;;0.08;0.08;;;6.70;99.90;;;;;;5088385;28;20019;-81
2024/02/12 11:36:40;;;;;;;0.00;0.00;;;6.70;99.90;;;;;;5087588;28;20024;-81
2024/02/12 11:39:09;;;;;;;0.10;0.10;;;6.70;99.90;;;;;;5091612;28;20613;-80
2024/02/12 11:41:39;;;;;;;0.00;0.00;;;6.70;99.90;;;;;;5091853;28;20055;-81
2024/02/12 11:44:05;;;;;;;0.00;0.00;;;6.70;99.90;;;;;;5091289;28;20150;-81
2024/02/12 11:46:36;;;;;;;0.00;0.00;;;6.80;99.90;;;;;;5091738;28;20486;-80
2024/02/12 11:49:08;;;;;;;0.10;0.10;;;6.80;99.90;;;;;;5087616;28;20047;-81
2024/02/12 11:51:38;;;;;;;0.10;0.10;;;6.80;99.90;;;;;;5087318;28;20079;-81
2024/02/12 11:54:06;;;;;;;0.10;0.10;;;6.80;99.90;;;;;;5087006;28;20054;-81
2024/02/12 11:56:36;;;;;;;0.10;0.10;;;6.80;99.90;;;;;;5087293;28;20052;-81
2024/02/12 11:59:04;;;;;;;0.10;0.10;;;7.00;99.90;;;;;;5087184;28;20055;-81
2024/02/12 12:01:34;;;;;;;0.10;0.10;;;7.00;99.90;;;;;;5087157;28;20032;-81
2024/02/12 12:04:01;;;;;;;0.10;0.10;;;6.90;99.90;;;;;;5086330;28;20039;-81
2024/02/12 12:06:31;;;;;;;0.00;0.00;;;7.10;99.90;;;;;;5079889;28;20024;-80
2024/02/12 12:08:57;;;;;;;0.10;0.10;;;7.20;99.90;;;;;;5088107;28;20058;-81
2024/02/12 12:11:23;;;;;;;0.00;0.00;;;7.00;99.90;;;;;;5081224;28;20024;-80
2024/02/12 12:13:57;;;;;;;0.10;0.10;;;7.00;99.90;;;;;;5087755;28;20437;-80
2024/02/12 12:16:23;;;;;;;0.10;0.10;;;7.00;99.90;;;;;;5082849;28;20038;-81
2024/02/12 12:18:49;;;;;;;0.10;0.10;;;7.10;99.90;;;;;;5089978;28;20110;-81
2024/02/12 12:21:18;;;;;;;0.22;0.22;;;7.10;99.90;;;;;;5087492;28;20044;-81
2024/02/12 12:23:45;;;;;;;0.10;0.10;;;7.10;99.90;;;;;;5084279;28;20032;-81
2024/02/12 12:26:12;;;;;;;;;;;7.20;99.90;;;;;;5097082;28;20407;-80
2024/02/12 12:28:38;;;;;;;0.10;0.10;;;7.20;99.90;;;;;;5087792;28;20574;-80
2024/02/12 12:31:04;;;;;;;0.03;0.03;;;7.20;99.90;;;;;;5087176;28;20026;-81
2024/02/12 12:33:32;;;;;;;0.10;0.10;;;7.30;99.90;;;;;;5087469;28;20028;-81
2024/02/12 12:35:58;;;;;;;0.10;0.10;;;7.40;99.90;;;;;;5085759;28;20043;-80
2024/02/12 12:38:24;;;;;;;0.10;0.10;;;7.50;99.90;;;;;;5085989;28;20093;-81
2024/02/12 12:40:49;;;;;;;0.10;0.10;;;7.70;99.90;;;;;;5087289;28;20028;-80
2024/02/12 12:43:16;;;;;;;0.00;0.00;;;7.90;99.90;;;;;;5087180;28;20804;-81
2024/02/12 12:45:42;;;;;;;;;;;8.10;99.90;;;;;;5087146;28;20028;-80
2024/02/12 12:48:12;;;;;;;0.10;0.10;;;8.00;99.90;;;;;;5089610;28;20046;-80
2024/02/12 12:50:40;;;;;;;0.00;0.00;;;7.90;99.90;;;;;;5081103;28;20142;-80
2024/02/12 12:53:08;;;;;;;0.20;0.20;;;7.80;99.90;;;;;;5086820;28;20020;-80
2024/02/12 12:55:35;;;;;;;0.10;0.10;;;7.80;99.90;;;;;;5088244;28;20052;-80
2024/02/12 12:58:01;;;;;;;0.10;0.10;;;7.80;99.90;;;;;;5089316;28;20151;-80
2024/02/12 13:00:29;;;;;;;0.00;0.00;;;7.70;99.90;;;;;;5091623;28;20117;-79
2024/02/12 13:02:55;;;;;;;0.03;0.03;;;7.70;99.90;;;;;;5088031;28;20091;-80
2024/02/12 13:05:25;;;;;;;0.10;0.10;;;7.50;99.90;;;;;;5090428;28;20476;-79
2024/02/12 13:07:51;;;;;;;0.00;0.00;;;7.60;99.90;;;;;;5089217;28;20031;-80
2024/02/12 13:10:17;;;;;;;0.10;0.10;;;7.60;99.90;;;;;;5093548;28;20162;-80
2024/02/12 13:12:44;;;;;;;0.10;0.10;;;7.50;99.90;;;;;;5089663;28;20123;-80